Time;durP1;ratioP1;P1;durP2;ratioP2;P2;SDS_P1;SDS_P2;PMS_P1;PMS_P2;Temp;Humidity;BMP_temperature;BMP_pressure;BME280_temperature;BME280_humidity;BME280_pressure;Samples;Min_cycle;Max_cycle;Signal;HPM_P1;HPM_P2
2023/10/06 00:01:42;;;;;;;14.90;10.67;;;14.00;1.00;;;;;;5054238;28;20497;-75
2023/10/06 00:04:12;;;;;;;12.17;10.90;;;14.00;1.00;;;;;;5053386;28;20466;-75
2023/10/06 00:06:41;;;;;;;12.60;10.20;;;13.90;1.00;;;;;;5059805;28;20447;-75
2023/10/06 00:09:20;;;;;;;13.53;10.67;;;14.00;1.00;;;;;;5051904;28;20465;-75
2023/10/06 00:11:50;;;;;;;12.13;10.87;;;14.00;1.00;;;;;;5050414;28;20465;-74
2023/10/06 00:14:38;;;;;;;14.97;11.07;;;14.00;1.00;;;;;;5050173;28;20557;-76
2023/10/06 00:17:12;;;;;;;12.03;10.83;;;14.00;1.00;;;;;;5053905;28;20484;-74
2023/10/06 00:19:41;;;;;;;12.63;11.43;;;14.00;1.00;;;;;;5048210;28;20468;-74
2023/10/06 00:22:17;;;;;;;12.73;11.27;;;14.00;1.00;;;;;;5050960;28;20464;-75
2023/10/06 00:24:47;;;;;;;13.90;11.13;;;14.00;1.00;;;;;;5055438;28;20453;-75
2023/10/06 00:27:18;;;;;;;11.90;10.80;;;14.10;1.00;;;;;;5056808;28;20984;-74
2023/10/06 00:29:47;;;;;;;14.23;12.83;;;14.10;1.00;;;;;;5059290;28;20482;-75
2023/10/06 00:32:25;;;;;;;11.97;10.53;;;14.10;1.00;;;;;;5070233;28;20911;-75
2023/10/06 00:34:54;;;;;;;13.00;11.27;;;14.10;1.00;;;;;;5071647;28;20460;-76
2023/10/06 00:37:22;;;;;;;11.53;10.43;;;14.10;1.00;;;;;;5069712;28;20522;-75
2023/10/06 00:39:53;;;;;;;12.30;11.10;;;14.00;1.00;;;;;;5076138;28;20467;-76
2023/10/06 00:42:20;;;;;;;14.07;12.30;;;14.00;1.00;;;;;;5069256;28;20466;-76
2023/10/06 00:44:48;;;;;;;12.63;10.20;;;14.10;1.00;;;;;;5069182;28;20458;-75
2023/10/06 00:47:15;;;;;;;11.20;9.97;;;14.10;1.00;;;;;;5071664;28;20973;-75
2023/10/06 00:49:43;;;;;;;12.53;10.40;;;14.30;1.00;;;;;;5073306;28;20545;-75
2023/10/06 00:52:12;;;;;;;11.90;10.40;;;14.30;1.00;;;;;;5076657;28;20460;-74
2023/10/06 00:54:39;;;;;;;11.77;10.77;;;14.40;1.00;;;;;;5073258;28;20549;-76
2023/10/06 00:57:10;;;;;;;12.67;11.47;;;14.40;1.00;;;;;;5075435;28;20477;-75
2023/10/06 00:59:37;;;;;;;11.10;10.00;;;14.40;1.00;;;;;;5075003;28;20447;-76
2023/10/06 01:02:08;;;;;;;12.07;10.80;;;14.40;1.00;;;;;;5070095;28;20543;-75
2023/10/06 01:04:43;;;;;;;12.80;10.30;;;14.50;1.00;;;;;;5076374;28;21137;-75
2023/10/06 01:07:12;;;;;;;14.07;11.33;;;14.60;1.00;;;;;;5073805;28;20473;-75
2023/10/06 01:09:39;;;;;;;12.83;11.50;;;14.50;1.00;;;;;;5072971;28;20474;-76
2023/10/06 01:12:13;;;;;;;13.23;12.03;;;14.50;1.00;;;;;;5072282;28;20484;-74
2023/10/06 01:14:41;;;;;;;13.57;12.10;;;14.40;1.00;;;;;;5076774;28;20975;-76
2023/10/06 01:17:14;;;;;;;11.90;10.80;;;14.40;1.00;;;;;;5075351;28;21252;-76
2023/10/06 01:19:48;;;;;;;13.03;11.80;;;14.40;1.00;;;;;;5071621;28;20855;-75
2023/10/06 01:22:24;;;;;;;13.03;11.80;;;14.40;1.00;;;;;;5049709;28;20483;-75
2023/10/06 01:24:52;;;;;;;14.07;12.63;;;14.30;1.00;;;;;;5055314;28;20464;-75
2023/10/06 01:27:21;;;;;;;12.10;10.90;;;14.20;1.00;;;;;;5051955;28;20515;-75
2023/10/06 01:29:52;;;;;;;13.60;12.10;;;14.10;1.00;;;;;;5060564;28;20550;-74
2023/10/06 01:32:19;;;;;;;13.40;11.80;;;14.20;1.00;;;;;;5051196;28;20429;-75
2023/10/06 01:34:50;;;;;;;12.63;11.30;;;14.20;1.00;;;;;;5053649;28;20543;-75
2023/10/06 01:37:18;;;;;;;15.47;12.43;;;14.20;1.00;;;;;;5052021;28;21050;-75
2023/10/06 01:39:48;;;;;;;13.30;11.93;;;14.10;1.00;;;;;;5053636;28;20844;-74
2023/10/06 01:42:20;;;;;;;14.27;12.80;;;14.10;1.00;;;;;;5051169;28;20484;-74
2023/10/06 01:44:47;;;;;;;14.83;12.53;;;14.00;1.00;;;;;;5072107;28;20448;-75
2023/10/06 01:47:18;;;;;;;13.43;12.13;;;14.00;1.00;;;;;;5071205;28;20560;-75
2023/10/06 01:49:47;;;;;;;12.43;11.13;;;13.90;1.00;;;;;;5060695;28;20954;-73
2023/10/06 01:52:19;;;;;;;19.50;13.27;;;13.90;1.00;;;;;;5053302;28;20967;-70
2023/10/06 01:54:47;;;;;;;13.73;12.30;;;13.90;1.00;;;;;;5056111;28;20440;-72
2023/10/06 01:57:15;;;;;;;12.93;11.60;;;13.80;1.00;;;;;;5058253;28;21315;-73
2023/10/06 01:59:44;;;;;;;12.93;11.30;;;13.80;1.00;;;;;;5071583;28;20921;-71
2023/10/06 02:02:12;;;;;;;14.13;12.10;;;13.80;1.00;;;;;;5071658;28;20941;-70
2023/10/06 02:04:44;;;;;;;15.20;13.60;;;13.80;1.00;;;;;;5073595;28;20537;-70
2023/10/06 02:07:11;;;;;;;13.63;12.17;;;13.90;1.00;;;;;;5071519;28;20564;-69
2023/10/06 02:09:39;;;;;;;26.47;23.60;;;13.90;1.00;;;;;;5068433;28;20465;-70
2023/10/06 02:12:07;;;;;;;14.00;12.50;;;13.90;1.00;;;;;;5071071;28;20461;-70
2023/10/06 02:14:35;;;;;;;12.73;11.43;;;14.00;1.00;;;;;;5073928;28;20429;-75
2023/10/06 02:17:05;;;;;;;13.47;12.20;;;14.00;1.00;;;;;;5070187;28;20929;-70
2023/10/06 02:19:34;;;;;;;14.33;12.83;;;13.90;1.00;;;;;;5075003;28;20445;-71
2023/10/06 02:22:01;;;;;;;14.87;13.40;;;13.80;1.00;;;;;;5076131;28;20474;-70
2023/10/06 02:24:28;;;;;;;14.40;12.10;;;13.80;1.00;;;;;;5067333;28;20514;-69
2023/10/06 02:27:00;;;;;;;14.60;12.00;;;13.90;1.00;;;;;;5072611;28;20545;-70
2023/10/06 02:29:29;;;;;;;13.17;11.97;;;13.90;1.00;;;;;;5068118;28;20977;-71
2023/10/06 02:32:00;;;;;;;12.93;11.60;;;13.90;1.00;;;;;;5071345;28;20488;-72
2023/10/06 02:34:30;;;;;;;14.13;12.23;;;13.90;1.00;;;;;;5066437;28;20619;-71
2023/10/06 02:36:57;;;;;;;13.50;12.10;;;13.90;1.00;;;;;;5070584;28;20468;-71
2023/10/06 02:39:27;;;;;;;12.63;11.27;;;13.90;1.00;;;;;;5070801;28;20551;-72
2023/10/06 02:41:57;;;;;;;13.23;11.87;;;13.90;1.00;;;;;;5048407;28;20956;-70
2023/10/06 02:44:26;;;;;;;13.50;12.10;;;14.00;1.00;;;;;;5058003;28;20484;-70
2023/10/06 02:46:55;;;;;;;14.37;12.87;;;14.00;1.00;;;;;;5069321;28;20465;-70
2023/10/06 02:49:31;;;;;;;12.80;11.50;;;14.10;1.00;;;;;;5050898;28;20966;-73
2023/10/06 02:52:00;;;;;;;14.47;13.07;;;14.10;1.00;;;;;;5065912;28;20492;-71
2023/10/06 02:54:28;;;;;;;12.97;11.67;;;14.20;1.00;;;;;;5053778;28;20463;-71
2023/10/06 02:56:55;;;;;;;15.60;14.00;;;14.30;1.00;;;;;;5050523;28;20463;-70
2023/10/06 02:59:24;;;;;;;13.07;11.77;;;14.30;1.00;;;;;;5049056;28;20487;-71
2023/10/06 03:01:53;;;;;;;13.87;12.40;;;14.40;1.00;;;;;;5053624;28;20558;-75
2023/10/06 03:04:25;;;;;;;13.13;11.73;;;14.40;1.00;;;;;;5050909;28;20993;-75
2023/10/06 03:06:56;;;;;;;13.87;12.37;;;14.50;1.00;;;;;;5062458;28;21077;-74
2023/10/06 03:09:36;;;;;;;15.33;13.47;;;14.50;1.00;;;;;;5050328;28;20963;-75
2023/10/06 03:12:11;;;;;;;14.20;12.87;;;14.50;1.00;;;;;;5062516;28;20466;-75
2023/10/06 03:14:38;;;;;;;14.20;12.80;;;14.50;1.00;;;;;;5047631;28;20460;-76
2023/10/06 03:17:10;;;;;;;13.90;12.53;;;14.50;1.00;;;;;;5047447;28;20556;-74
2023/10/06 03:19:41;;;;;;;16.43;12.97;;;14.60;1.00;;;;;;5044414;28;20538;-74
2023/10/06 03:22:09;;;;;;;13.83;12.43;;;14.50;1.00;;;;;;5048143;28;20556;-75
2023/10/06 03:24:44;;;;;;;15.50;12.93;;;14.50;1.00;;;;;;5049640;28;20480;-76
2023/10/06 03:27:14;;;;;;;15.33;13.83;;;14.70;1.00;;;;;;5047218;28;20565;-75
2023/10/06 03:29:48;;;;;;;16.90;13.57;;;14.50;1.00;;;;;;5051291;28;20517;-74
2023/10/06 03:32:25;;;;;;;15.67;14.17;;;14.60;1.00;;;;;;5062362;28;20486;-77
2023/10/06 03:34:54;;;;;;;15.63;14.00;;;14.70;1.00;;;;;;5047451;28;20493;-75
2023/10/06 03:37:34;;;;;;;15.97;13.90;;;14.60;1.00;;;;;;5056467;28;20925;-76
2023/10/06 03:40:11;;;;;;;15.33;13.90;;;14.60;1.00;;;;;;5066801;28;20458;-75
2023/10/06 03:42:39;;;;;;;15.90;14.13;;;14.60;1.00;;;;;;5049072;28;20474;-75
2023/10/06 03:45:20;;;;;;;16.27;14.57;;;14.50;1.00;;;;;;5054538;28;20627;-74
2023/10/06 03:47:48;;;;;;;17.43;15.60;;;14.50;1.00;;;;;;5069954;28;20467;-75
2023/10/06 03:50:19;;;;;;;19.70;15.03;;;14.60;1.00;;;;;;5070656;28;20458;-75
2023/10/06 03:52:47;;;;;;;18.50;14.67;;;14.70;1.00;;;;;;5058779;28;23448;-76
2023/10/06 03:55:14;;;;;;;17.07;14.90;;;14.70;1.00;;;;;;5053883;28;20466;-75
2023/10/06 03:57:42;;;;;;;18.07;15.40;;;14.70;1.00;;;;;;5070288;28;20513;-75
2023/10/06 04:00:17;;;;;;;15.90;14.30;;;14.80;1.00;;;;;;5068241;28;20458;-75
2023/10/06 04:02:48;;;;;;;20.10;16.27;;;14.90;1.00;;;;;;5061464;28;21856;-74
2023/10/06 04:05:18;;;;;;;19.93;16.30;;;14.90;1.00;;;;;;5042745;28;20472;-74
2023/10/06 04:07:46;;;;;;;20.20;16.33;;;14.80;1.00;;;;;;5068127;28;20614;-74
2023/10/06 04:10:16;;;;;;;19.10;15.80;;;14.80;1.00;;;;;;5071120;28;20470;-74
2023/10/06 04:12:44;;;;;;;18.63;16.47;;;14.80;1.00;;;;;;5064590;28;20891;-75
2023/10/06 04:15:14;;;;;;;16.90;15.40;;;14.80;1.00;;;;;;5067591;28;20472;-74
2023/10/06 04:17:43;;;;;;;17.70;15.90;;;14.80;1.00;;;;;;5068725;28;20942;-74
2023/10/06 04:20:13;;;;;;;17.20;15.50;;;14.90;1.00;;;;;;5063498;28;20473;-74
2023/10/06 04:22:43;;;;;;;16.77;15.17;;;14.90;1.00;;;;;;5073402;28;20476;-73
2023/10/06 04:25:11;;;;;;;17.87;16.17;;;14.90;1.00;;;;;;5068659;28;20471;-73
2023/10/06 04:27:38;;;;;;;18.80;16.77;;;14.90;1.00;;;;;;5067472;28;20858;-74
2023/10/06 04:30:11;;;;;;;18.50;16.53;;;14.80;1.00;;;;;;5063346;28;20538;-75
2023/10/06 04:32:39;;;;;;;17.43;15.60;;;14.70;1.00;;;;;;5068394;28;20469;-75
2023/10/06 04:35:19;;;;;;;17.50;15.70;;;14.70;1.00;;;;;;5069987;28;21027;-74
2023/10/06 04:37:48;;;;;;;18.63;16.73;;;14.80;1.00;;;;;;5065902;28;21005;-75
2023/10/06 04:40:18;;;;;;;22.30;18.50;;;14.70;1.00;;;;;;5067111;28;20517;-75
2023/10/06 04:42:45;;;;;;;19.83;17.03;;;14.60;1.00;;;;;;5072017;28;20511;-75
2023/10/06 04:45:13;;;;;;;23.67;19.30;;;14.70;1.00;;;;;;5070163;28;20454;-75
2023/10/06 04:47:41;;;;;;;22.13;18.60;;;14.60;1.00;;;;;;5071867;28;21084;-75
2023/10/06 04:50:09;;;;;;;22.47;18.47;;;14.70;1.00;;;;;;5070836;28;20449;-74
2023/10/06 04:52:37;;;;;;;18.70;16.70;;;14.70;1.00;;;;;;5071844;28;20458;-74
2023/10/06 04:55:10;;;;;;;25.83;23.13;;;14.70;1.00;;;;;;5073532;28;20450;-74
2023/10/06 04:57:37;;;;;;;22.23;19.57;;;14.60;1.00;;;;;;5070560;28;20512;-74
2023/10/06 05:00:06;;;;;;;24.13;21.53;;;14.60;1.00;;;;;;5070121;27;20486;-74
2023/10/06 05:02:34;;;;;;;23.83;21.00;;;14.50;1.00;;;;;;5071274;28;20462;-74
2023/10/06 05:05:02;;;;;;;27.13;23.10;;;14.50;1.00;;;;;;5069168;28;20450;-74
2023/10/06 05:07:29;;;;;;;25.83;21.30;;;14.50;1.00;;;;;;5069301;28;21224;-73
2023/10/06 05:09:56;;;;;;;26.97;22.30;;;14.50;1.00;;;;;;5071030;28;20474;-74
2023/10/06 05:12:24;;;;;;;24.13;21.60;;;14.50;1.00;;;;;;5068975;28;20483;-74
2023/10/06 05:14:51;;;;;;;26.20;22.10;;;14.40;1.00;;;;;;5071859;28;20460;-74
2023/10/06 05:17:21;;;;;;;24.73;21.80;;;14.40;1.00;;;;;;5077142;28;20445;-73
2023/10/06 05:19:48;;;;;;;22.33;19.97;;;14.40;1.00;;;;;;5071693;28;20488;-75
2023/10/06 05:22:16;;;;;;;29.27;23.37;;;14.30;1.00;;;;;;5069356;28;20989;-70
2023/10/06 05:24:43;;;;;;;30.93;23.00;;;14.30;1.00;;;;;;5069314;28;20474;-70
2023/10/06 05:27:10;;;;;;;23.77;21.17;;;14.30;1.00;;;;;;5070953;28;20560;-70
2023/10/06 05:29:38;;;;;;;26.80;22.73;;;14.30;1.00;;;;;;5068394;28;20831;-70
2023/10/06 05:32:06;;;;;;;25.13;22.50;;;14.30;1.00;;;;;;5070925;28;20490;-73
2023/10/06 05:34:34;;;;;;;25.90;23.13;;;14.40;1.00;;;;;;5070908;28;21000;-71
2023/10/06 05:37:02;;;;;;;23.70;20.90;;;14.40;1.00;;;;;;5072981;28;20489;-70
2023/10/06 05:39:33;;;;;;;25.27;22.50;;;14.40;1.00;;;;;;5070020;28;20458;-71
2023/10/06 05:42:02;;;;;;;25.40;21.60;;;14.40;1.00;;;;;;5070015;28;20462;-71
2023/10/06 05:44:30;;;;;;;24.83;22.10;;;14.50;1.00;;;;;;5066737;28;20473;-73
2023/10/06 05:46:59;;;;;;;25.03;22.30;;;14.60;1.00;;;;;;5063054;28;20470;-72
2023/10/06 05:49:26;;;;;;;26.80;21.90;;;14.60;1.00;;;;;;5049754;28;20892;-72
2023/10/06 05:51:54;;;;;;;28.17;22.80;;;14.70;1.00;;;;;;5048183;28;20562;-70
2023/10/06 05:54:22;;;;;;;24.97;22.20;;;14.70;1.00;;;;;;5043736;28;20964;-69
2023/10/06 05:56:53;;;;;;;24.00;21.50;;;14.70;1.00;;;;;;5045548;28;20466;-70
2023/10/06 05:59:21;;;;;;;23.90;21.30;;;14.70;1.00;;;;;;5050602;28;20928;-70
2023/10/06 06:01:56;;;;;;;25.50;22.90;;;14.70;1.00;;;;;;5036532;28;20574;-70
2023/10/06 06:04:27;;;;;;;23.20;20.83;;;14.60;1.00;;;;;;5043520;28;20469;-70
2023/10/06 06:06:56;;;;;;;25.37;21.07;;;14.50;1.00;;;;;;5051940;28;20586;-70
2023/10/06 06:09:24;;;;;;;24.70;22.13;;;14.50;1.00;;;;;;5056523;28;20466;-69
2023/10/06 06:11:53;;;;;;;23.83;20.43;;;14.40;1.00;;;;;;5067430;28;20451;-71
2023/10/06 06:14:21;;;;;;;24.63;21.50;;;14.40;1.00;;;;;;5068655;28;20521;-72
2023/10/06 06:16:48;;;;;;;25.10;21.63;;;14.50;1.00;;;;;;5069991;28;20497;-72
2023/10/06 06:19:15;;;;;;;25.63;22.70;;;14.50;1.00;;;;;;5066809;28;20451;-71
2023/10/06 06:21:44;;;;;;;24.07;21.70;;;14.50;1.00;;;;;;5071619;28;21044;-71
2023/10/06 06:24:12;;;;;;;23.90;21.00;;;14.60;1.00;;;;;;5072516;28;20482;-71
2023/10/06 06:26:39;;;;;;;24.30;21.60;;;14.60;1.00;;;;;;5063627;28;21082;-72
2023/10/06 06:29:08;;;;;;;23.57;21.07;;;14.60;1.00;;;;;;5046216;28;20554;-72
2023/10/06 06:31:35;;;;;;;24.63;22.13;;;14.60;1.00;;;;;;5047998;28;20464;-72
2023/10/06 06:34:04;;;;;;;23.47;20.70;;;14.80;1.00;;;;;;5059425;28;20462;-73
2023/10/06 06:36:32;;;;;;;23.63;21.10;;;14.90;1.00;;;;;;5073763;28;20558;-72
2023/10/06 06:39:03;;;;;;;23.17;20.80;;;14.90;1.00;;;;;;5057102;28;20943;-71
2023/10/06 06:41:30;;;;;;;21.57;19.23;;;15.00;1.00;;;;;;5066706;28;20578;-71
2023/10/06 06:43:58;;;;;;;21.30;19.10;;;15.10;1.00;;;;;;5067481;28;20462;-73
2023/10/06 06:46:26;;;;;;;20.77;18.67;;;15.30;1.00;;;;;;5070095;28;20484;-71
2023/10/06 06:48:53;;;;;;;21.90;18.73;;;15.30;1.00;;;;;;5059365;28;20961;-71
2023/10/06 06:51:27;;;;;;;20.43;18.20;;;15.30;1.00;;;;;;5064475;28;21000;-70
2023/10/06 06:53:56;;;;;;;19.80;17.90;;;15.30;1.00;;;;;;5062922;28;20455;-71
2023/10/06 06:56:28;;;;;;;20.90;18.80;;;15.30;1.00;;;;;;5060340;28;20469;-72
2023/10/06 06:58:55;;;;;;;21.57;17.30;;;15.30;1.00;;;;;;5046752;28;20545;-72
2023/10/06 07:01:23;;;;;;;20.47;18.27;;;15.20;1.00;;;;;;5049377;28;20806;-76
2023/10/06 07:03:50;;;;;;;19.10;17.03;;;15.30;1.00;;;;;;5050580;28;20487;-77
2023/10/06 07:06:17;;;;;;;19.20;17.30;;;15.40;1.00;;;;;;5046172;28;20479;-73
2023/10/06 07:08:45;;;;;;;23.30;19.10;;;15.50;1.00;;;;;;5047665;28;20905;-72
2023/10/06 07:11:13;;;;;;;18.87;16.80;;;15.60;1.00;;;;;;5049082;28;20483;-73
2023/10/06 07:13:42;;;;;;;17.50;15.80;;;15.70;1.00;;;;;;5051910;28;20451;-73
2023/10/06 07:16:09;;;;;;;18.20;16.00;;;15.80;1.00;;;;;;5055200;28;20484;-73
2023/10/06 07:18:37;;;;;;;19.53;17.50;;;15.80;1.00;;;;;;5048641;28;21003;-73
2023/10/06 07:21:09;;;;;;;17.70;15.80;;;15.80;1.00;;;;;;5048360;28;20479;-72
2023/10/06 07:23:37;;;;;;;18.70;16.70;;;15.80;1.00;;;;;;5049631;28;20483;-73
2023/10/06 07:26:14;;;;;;;20.80;18.77;;;15.90;1.00;;;;;;5046684;28;20507;-73
2023/10/06 07:28:43;;;;;;;17.20;15.50;;;16.00;1.00;;;;;;5053429;28;20554;-71
2023/10/06 07:31:12;;;;;;;16.60;14.60;;;16.10;1.00;;;;;;5052427;28;20558;-73
2023/10/06 07:33:39;;;;;;;18.97;17.10;;;16.20;1.00;;;;;;5048208;28;20461;-71
2023/10/06 07:36:13;;;;;;;18.67;16.77;;;16.30;1.00;;;;;;5063893;28;20551;-70
2023/10/06 07:38:41;;;;;;;18.23;15.70;;;16.30;1.00;;;;;;5067951;28;20479;-73
2023/10/06 07:41:09;;;;;;;17.07;15.23;;;16.40;1.00;;;;;;5058659;28;20946;-71
2023/10/06 07:43:37;;;;;;;17.63;16.00;;;16.50;1.00;;;;;;5070320;28;20459;-72
2023/10/06 07:46:07;;;;;;;17.60;15.63;;;16.60;1.00;;;;;;5066402;28;20483;-72
2023/10/06 07:48:37;;;;;;;18.63;15.30;;;16.70;1.00;;;;;;5065705;28;20538;-72
2023/10/06 07:51:06;;;;;;;18.60;15.07;;;16.70;1.00;;;;;;5060572;28;20845;-70
2023/10/06 07:53:35;;;;;;;17.03;15.40;;;16.60;1.00;;;;;;5049380;28;20559;-70
2023/10/06 07:56:06;;;;;;;17.43;15.17;;;16.50;1.00;;;;;;5044043;28;20479;-69
2023/10/06 07:58:33;;;;;;;17.53;14.20;;;16.60;1.00;;;;;;5047382;28;20536;-69
2023/10/06 08:01:02;;;;;;;14.57;13.37;;;16.60;1.00;;;;;;5046587;28;20476;-70
2023/10/06 08:03:30;;;;;;;16.07;14.20;;;16.80;1.00;;;;;;5047605;28;20504;-71
2023/10/06 08:06:01;;;;;;;16.30;13.40;;;16.90;1.00;;;;;;5050989;28;20487;-70
2023/10/06 08:08:28;;;;;;;14.80;13.40;;;16.80;1.00;;;;;;5048494;28;20466;-71
2023/10/06 08:10:56;;;;;;;14.40;13.10;;;16.80;1.00;;;;;;5051927;28;20947;-71
2023/10/06 08:13:23;;;;;;;16.33;13.20;;;16.80;1.00;;;;;;5046162;28;21710;-69
2023/10/06 08:15:51;;;;;;;14.57;13.17;;;16.90;1.00;;;;;;5050344;28;20510;-70
2023/10/06 08:18:18;;;;;;;14.43;13.03;;;17.00;1.00;;;;;;5053988;28;20468;-69
2023/10/06 08:20:47;;;;;;;16.83;12.10;;;17.20;1.00;;;;;;5047832;28;20907;-70
2023/10/06 08:23:15;;;;;;;13.30;12.00;;;17.30;1.00;;;;;;5046523;28;21229;-72
2023/10/06 08:25:44;;;;;;;14.50;13.10;;;17.20;1.00;;;;;;5051277;28;20492;-71
2023/10/06 08:28:11;;;;;;;15.20;12.07;;;17.30;1.00;;;;;;5051961;28;20468;-70
2023/10/06 08:30:38;;;;;;;13.80;12.33;;;17.30;1.00;;;;;;5048495;28;21168;-76
2023/10/06 08:33:09;;;;;;;13.03;11.13;;;17.30;1.00;;;;;;5055823;28;20448;-74
2023/10/06 08:35:36;;;;;;;13.47;12.17;;;17.30;1.00;;;;;;5047320;28;20467;-77
2023/10/06 08:38:07;;;;;;;12.07;11.00;;;17.20;1.00;;;;;;5056617;28;20532;-74
2023/10/06 08:40:37;;;;;;;14.73;11.97;;;17.40;1.00;;;;;;5070055;28;20460;-75
2023/10/06 08:43:06;;;;;;;13.40;10.73;;;18.20;1.00;;;;;;5071436;28;20527;-76
2023/10/06 08:45:40;;;;;;;11.53;10.33;;;19.00;1.00;;;;;;5059276;28;20476;-78
2023/10/06 08:48:10;;;;;;;14.10;11.33;;;19.30;1.00;;;;;;5056649;28;20453;-74
2023/10/06 08:50:38;;;;;;;16.97;10.60;;;19.40;1.00;;;;;;5028557;28;20469;-74
2023/10/06 08:53:09;;;;;;;11.83;10.77;;;19.30;1.00;;;;;;5055279;28;20461;-73
2023/10/06 08:55:38;;;;;;;10.90;9.80;;;19.40;1.00;;;;;;5053975;28;20482;-71
2023/10/06 08:58:06;;;;;;;10.93;9.30;;;19.70;1.00;;;;;;5044937;28;20455;-72
2023/10/06 09:00:36;;;;;;;11.60;9.87;;;20.50;1.00;;;;;;5052058;28;20553;-72
2023/10/06 09:03:08;;;;;;;12.23;9.97;;;20.70;1.00;;;;;;5056559;28;20458;-75
2023/10/06 09:05:37;;;;;;;10.70;9.63;;;20.30;1.00;;;;;;5050599;28;20473;-75
2023/10/06 09:08:07;;;;;;;13.00;10.50;;;19.90;1.00;;;;;;5052384;28;20482;-74
2023/10/06 09:10:36;;;;;;;12.80;10.00;;;19.50;1.00;;;;;;5049341;28;20438;-75
2023/10/06 09:13:05;;;;;;;9.80;8.80;;;19.20;1.00;;;;;;5049351;28;20504;-75
2023/10/06 09:15:35;;;;;;;10.67;9.60;;;19.00;1.00;;;;;;5066356;28;20465;-75
2023/10/06 09:18:15;;;;;;;12.20;8.97;;;18.90;1.00;;;;;;5054591;28;20448;-73
2023/10/06 09:20:45;;;;;;;12.80;9.77;;;18.80;1.00;;;;;;5049741;28;20540;-75
2023/10/06 09:23:28;;;;;;;8.70;8.00;;;18.90;1.00;;;;;;5051650;28;20866;-76
2023/10/06 09:25:55;;;;;;;8.70;7.80;;;19.00;1.00;;;;;;5053629;28;20961;-75
2023/10/06 09:28:22;;;;;;;8.07;7.27;;;18.90;1.00;;;;;;5073073;28;20469;-73
2023/10/06 09:30:57;;;;;;;9.27;7.07;;;18.80;1.00;;;;;;5069544;28;20469;-75
2023/10/06 09:33:26;;;;;;;10.13;7.07;;;19.00;1.00;;;;;;5069834;28;20460;-74
2023/10/06 09:36:11;;;;;;;8.03;7.20;;;19.20;1.00;;;;;;5054808;28;20811;-75
2023/10/06 09:38:40;;;;;;;14.77;7.60;;;19.30;1.00;;;;;;5056989;28;20492;-74
2023/10/06 09:41:09;;;;;;;8.97;6.93;;;19.10;1.00;;;;;;5050569;27;21039;-74
2023/10/06 09:43:38;;;;;;;9.53;7.33;;;19.10;1.00;;;;;;5067972;28;20521;-74
2023/10/06 09:46:07;;;;;;;8.37;7.67;;;19.30;1.00;;;;;;5072032;28;20917;-74
2023/10/06 09:48:38;;;;;;;7.10;6.40;;;19.60;1.00;;;;;;5059691;28;20830;-74
2023/10/06 09:51:07;;;;;;;8.03;6.27;;;19.70;1.00;;;;;;5047338;28;20563;-75
2023/10/06 09:53:38;;;;;;;8.20;6.57;;;19.80;1.00;;;;;;5046102;28;20559;-77
2023/10/06 09:56:10;;;;;;;8.70;7.30;;;20.00;1.00;;;;;;5048798;27;20962;-75
2023/10/06 09:58:39;;;;;;;6.83;6.10;;;20.10;1.00;;;;;;5069544;28;20566;-75
2023/10/06 10:01:10;;;;;;;7.57;6.60;;;20.30;1.00;;;;;;5068979;28;20464;-76
2023/10/06 10:03:38;;;;;;;9.23;5.77;;;20.30;1.00;;;;;;5070722;28;20554;-75
2023/10/06 10:06:05;;;;;;;7.70;5.57;;;20.10;1.00;;;;;;5071876;28;20556;-75
2023/10/06 10:08:33;;;;;;;6.70;5.20;;;20.00;1.00;;;;;;5048491;28;20549;-75
2023/10/06 10:11:04;;;;;;;5.83;5.20;;;19.90;1.00;;;;;;5045590;28;20537;-75
2023/10/06 10:14:09;;;;;;;12.30;4.90;;;19.80;1.00;;;;;;5044664;28;21018;-72
2023/10/06 10:16:58;;;;;;;6.70;5.27;;;20.00;1.00;;;;;;5044104;28;20586;-72
2023/10/06 10:19:28;;;;;;;8.77;4.40;;;20.10;1.00;;;;;;5055942;28;20478;-76
2023/10/06 10:21:55;;;;;;;8.00;4.50;;;19.80;1.00;;;;;;5047863;28;20452;-77
2023/10/06 10:24:25;;;;;;;4.07;3.67;;;19.50;1.00;;;;;;5049182;28;20588;-75
2023/10/06 10:26:54;;;;;;;5.67;4.13;;;19.50;1.00;;;;;;5070743;28;20553;-75
2023/10/06 10:29:45;;;;;;;6.33;4.87;;;19.70;1.00;;;;;;5065827;28;20485;-73
2023/10/06 10:32:15;;;;;;;6.50;4.70;;;19.80;1.00;;;;;;5059725;28;20916;-74
2023/10/06 10:35:09;;;;;;;6.23;4.60;;;19.80;1.00;;;;;;5068681;28;20535;-74
2023/10/06 10:37:55;;;;;;;7.13;4.40;;;19.70;1.00;;;;;;5068238;28;20490;-73
2023/10/06 10:40:24;;;;;;;6.40;4.23;;;19.60;1.00;;;;;;5064695;28;20470;-74
2023/10/06 10:42:57;;;;;;;6.20;3.50;;;19.60;1.00;;;;;;5046446;28;20462;-74
2023/10/06 10:45:35;;;;;;;5.87;3.80;;;19.60;1.00;;;;;;5049322;28;20489;-73
2023/10/06 10:48:06;;;;;;;7.17;4.27;;;19.50;1.00;;;;;;5064178;28;20540;-73
2023/10/06 10:50:59;;;;;;;8.00;3.70;;;19.50;1.00;;;;;;5071854;28;20554;-74
2023/10/06 10:53:30;;;;;;;7.77;5.00;;;19.60;1.00;;;;;;5068625;28;20570;-74
2023/10/06 10:55:57;;;;;;;7.30;4.23;;;19.60;1.00;;;;;;5072126;28;20470;-74
2023/10/06 10:58:55;;;;;;;5.13;3.57;;;19.40;1.00;;;;;;5061439;28;20848;-74
2023/10/06 11:01:31;;;;;;;6.77;3.47;;;19.30;1.00;;;;;;5050656;28;20531;-74
2023/10/06 11:04:35;;;;;;;4.20;3.13;;;19.20;1.00;;;;;;5052060;28;20477;-73
2023/10/06 11:07:11;;;;;;;4.10;3.00;;;19.20;1.00;;;;;;5058461;28;20455;-73
2023/10/06 11:09:40;;;;;;;4.40;3.23;;;19.00;1.00;;;;;;5067145;28;20472;-73
2023/10/06 11:12:25;;;;;;;5.97;3.23;;;19.10;1.00;;;;;;5069867;28;20876;-73
2023/10/06 11:14:52;;;;;;;4.10;3.20;;;19.20;1.00;;;;;;5059360;28;20462;-73
2023/10/06 11:17:22;;;;;;;5.87;3.57;;;19.20;1.00;;;;;;5052163;28;20438;-72
2023/10/06 11:20:00;;;;;;;6.63;3.73;;;19.30;1.00;;;;;;5066016;28;20639;-74
2023/10/06 11:22:28;;;;;;;6.43;3.67;;;19.20;1.00;;;;;;5054175;28;20907;-74
2023/10/06 11:24:57;;;;;;;5.43;4.00;;;19.40;1.00;;;;;;5051298;28;20466;-73
2023/10/06 11:27:28;;;;;;;4.77;3.50;;;19.60;1.00;;;;;;5056437;28;20473;-72
2023/10/06 11:29:57;;;;;;;6.00;3.90;;;19.80;1.00;;;;;;5069954;28;20965;-73
2023/10/06 11:32:28;;;;;;;4.90;3.13;;;20.00;1.00;;;;;;5073852;28;20486;-72
2023/10/06 11:34:56;;;;;;;6.83;3.50;;;20.20;1.00;;;;;;5073614;28;20464;-73
2023/10/06 11:37:24;;;;;;;6.93;3.63;;;20.60;1.00;;;;;;5074025;28;20463;-73
2023/10/06 11:39:52;;;;;;;7.00;3.80;;;20.90;1.00;;;;;;5067794;28;20933;-73
2023/10/06 11:42:35;;;;;;;4.10;3.40;;;21.00;1.00;;;;;;5070820;28;20485;-73
2023/10/06 11:45:06;;;;;;;6.60;3.40;;;20.90;1.00;;;;;;5071362;28;20520;-73
2023/10/06 11:47:43;;;;;;;11.07;3.83;;;21.10;1.00;;;;;;5070893;28;20503;-73
2023/10/06 11:50:25;;;;;;;4.60;3.00;;;21.60;1.00;;;;;;5069566;28;20467;-73
2023/10/06 11:52:52;;;;;;;6.33;4.27;;;21.50;1.00;;;;;;5068198;28;20540;-73
2023/10/06 11:55:31;;;;;;;4.57;3.10;;;21.90;1.00;;;;;;5057408;28;20531;-72
2023/10/06 11:58:00;;;;;;;3.57;2.60;;;22.60;1.00;;;;;;5044769;28;20504;-73
2023/10/06 12:00:48;;;;;;;3.77;3.20;;;22.60;1.00;;;;;;5058992;28;20892;-73
2023/10/06 12:03:38;;;;;;;4.43;3.57;;;22.40;1.00;;;;;;5052064;28;20470;-74
2023/10/06 12:06:07;;;;;;;4.70;3.07;;;22.60;1.00;;;;;;5053442;28;20458;-72
2023/10/06 12:08:41;;;;;;;6.80;3.47;;;22.30;1.00;;;;;;5053091;28;20593;-72
2023/10/06 12:11:08;;;;;;;3.03;2.73;;;21.80;1.00;;;;;;5071042;28;20478;-72
2023/10/06 12:13:37;;;;;;;5.53;3.40;;;21.50;1.00;;;;;;5069531;28;20935;-73
2023/10/06 12:16:12;;;;;;;6.90;3.40;;;21.30;1.00;;;;;;5063188;28;20481;-73
2023/10/06 12:18:43;;;;;;;4.93;3.00;;;21.50;1.00;;;;;;5069043;28;20457;-75
2023/10/06 12:21:11;;;;;;;3.20;2.77;;;21.50;1.00;;;;;;5070668;28;20465;-73
2023/10/06 12:23:39;;;;;;;6.33;3.20;;;21.50;1.00;;;;;;5071229;28;20514;-73
2023/10/06 12:26:09;;;;;;;5.50;2.67;;;21.20;1.00;;;;;;5068922;28;20961;-72
2023/10/06 12:28:38;;;;;;;3.83;2.70;;;20.80;1.00;;;;;;5068284;28;20517;-73
2023/10/06 12:31:06;;;;;;;4.60;2.40;;;20.60;1.00;;;;;;5068831;28;20482;-75
2023/10/06 12:33:33;;;;;;;4.30;2.67;;;20.60;1.00;;;;;;5071063;28;20466;-74
2023/10/06 12:36:06;;;;;;;4.73;3.33;;;20.40;1.00;;;;;;5071616;28;20464;-73
2023/10/06 12:38:33;;;;;;;11.33;4.93;;;20.30;1.00;;;;;;5068197;28;20467;-71
2023/10/06 12:41:00;;;;;;;7.13;3.47;;;20.10;1.00;;;;;;5070636;28;20482;-71
2023/10/06 12:43:27;;;;;;;7.93;3.70;;;20.00;1.00;;;;;;5062639;28;20639;-72
2023/10/06 12:45:54;;;;;;;5.13;2.60;;;19.70;1.00;;;;;;5051300;28;20715;-72
2023/10/06 12:48:21;;;;;;;2.90;2.60;;;19.70;1.00;;;;;;5050065;28;20593;-71
2023/10/06 12:50:50;;;;;;;4.43;2.10;;;19.60;1.00;;;;;;5051112;28;20458;-74
2023/10/06 12:53:18;;;;;;;3.77;2.63;;;19.50;1.00;;;;;;5049927;28;20461;-72
2023/10/06 12:55:46;;;;;;;4.00;2.67;;;19.40;1.00;;;;;;5069449;28;20657;-72
2023/10/06 12:58:14;;;;;;;7.43;2.80;;;19.40;1.00;;;;;;5050905;28;20602;-74
2023/10/06 13:00:42;;;;;;;4.07;3.10;;;19.40;1.00;;;;;;5050847;28;20486;-72